Time;durP1;ratioP1;P1;durP2;ratioP2;P2;SDS_P1;SDS_P2;PMS_P1;PMS_P2;Temp;Humidity;BMP_temperature;BMP_pressure;BME280_temperature;BME280_humidity;BME280_pressure;Samples;Min_cycle;Max_cycle;Signal;HPM_P1;HPM_P2
2021/06/23 00:01:29;;;;;;;9.30;2.38;;;;;;;11.91;52.49;102169.28;4174865;28;20037;-89
2021/06/23 00:03:30;;;;;;;7.50;3.03;;;;;;;11.70;52.26;102147.34;4155958;28;20081;-91
2021/06/23 00:05:31;;;;;;;7.78;3.13;;;;;;;11.80;52.05;102141.53;4174869;28;20036;-88
2021/06/23 00:07:31;;;;;;;9.50;3.03;;;;;;;11.81;52.24;102160.53;4173936;28;20035;-87
2021/06/23 00:09:32;;;;;;;8.57;2.63;;;;;;;11.88;52.49;102169.69;4158457;28;20087;-89
2021/06/23 00:11:41;;;;;;;7.78;3.10;;;;;;;11.72;52.39;102143.38;4144257;28;20484;-90
2021/06/23 00:13:41;;;;;;;5.72;2.75;;;;;;;11.96;52.21;102174.16;4176992;28;20399;-89
2021/06/23 00:15:42;;;;;;;7.32;3.08;;;;;;;11.80;52.40;102158.00;4143172;28;20120;-88
2021/06/23 00:17:44;;;;;;;5.47;2.67;;;;;;;11.78;52.28;102160.94;4156720;28;20049;-88
2021/06/23 00:19:44;;;;;;;5.47;2.60;;;;;;;11.58;52.08;102139.66;4156939;28;20091;-86
2021/06/23 00:21:45;;;;;;;9.15;2.58;;;;;;;11.73;52.08;102156.00;4178104;28;20041;-88
2021/06/23 00:23:45;;;;;;;7.80;2.67;;;;;;;11.83;52.03;102171.31;4160138;28;20036;-89
2021/06/23 00:25:46;;;;;;;4.90;2.78;;;;;;;11.96;52.16;102179.66;4142121;28;20052;-89
2021/06/23 00:27:46;;;;;;;7.80;3.00;;;;;;;11.88;52.52;102172.41;4169109;28;20482;-89
2021/06/23 00:29:47;;;;;;;7.35;2.92;;;;;;;11.89;52.40;102179.59;4176938;28;20033;-89
2021/06/23 00:31:50;;;;;;;6.63;2.88;;;;;;;11.84;52.56;102160.13;4137448;28;20041;-90
2021/06/23 00:33:52;;;;;;;8.23;3.90;;;;;;;11.98;52.79;102174.81;4140555;28;20037;-87
2021/06/23 00:35:53;;;;;;;8.82;3.08;;;;;;;11.51;53.32;102179.88;4158175;28;20049;-87
2021/06/23 00:37:53;;;;;;;4.40;2.50;;;;;;;11.53;53.54;102179.69;4160812;28;20433;-89
2021/06/23 00:39:53;;;;;;;11.63;2.55;;;;;;;11.42;53.90;102161.03;4143564;28;20098;-84
2021/06/23 00:41:54;;;;;;;8.70;2.65;;;;;;;11.54;53.97;102186.88;4154381;28;20084;-89
2021/06/23 00:43:55;;;;;;;5.32;2.20;;;;;;;11.40;54.52;102158.47;4148717;28;20455;-87
2021/06/23 00:45:56;;;;;;;5.05;2.47;;;;;;;11.57;54.51;102178.25;4175725;28;20040;-93
2021/06/23 00:47:57;;;;;;;6.32;2.10;;;;;;;11.39;54.39;102146.63;4177720;28;20029;-86
2021/06/23 00:49:58;;;;;;;7.75;2.03;;;;;;;11.36;54.74;102144.28;4157823;28;20033;-86
2021/06/23 00:52:02;;;;;;;8.65;2.55;;;;;;;11.53;54.75;102187.91;4155101;28;20030;-89
2021/06/23 00:54:10;;;;;;;5.75;2.40;;;;;;;11.48;54.53;102174.78;4177786;28;20044;-84
2021/06/23 00:56:11;;;;;;;5.57;2.28;;;;;;;11.46;54.84;102176.00;4174580;28;20033;-87
2021/06/23 00:58:13;;;;;;;8.02;2.03;;;;;;;11.46;54.65;102176.00;4172848;28;20068;-88
2021/06/23 01:00:15;;;;;;;9.10;2.22;;;;;;;11.53;54.49;102186.00;4176847;28;20075;-89
2021/06/23 01:02:17;;;;;;;6.57;2.25;;;;;;;11.30;54.84;102160.69;4142691;28;20034;-89
2021/06/23 01:04:19;;;;;;;4.88;1.98;;;;;;;11.35;54.35;102161.81;4164218;28;20044;-84
2021/06/23 01:06:20;;;;;;;4.85;2.13;;;;;;;11.32;54.33;102153.97;4154710;28;20021;-89
2021/06/23 01:08:21;;;;;;;7.47;2.95;;;;;;;11.32;54.21;102155.84;4111895;28;20650;-85
2021/06/23 01:10:22;;;;;;;8.15;3.28;;;;;;;11.42;54.23;102172.00;4161127;28;20029;-88
2021/06/23 01:12:25;;;;;;;4.97;3.08;;;;;;;11.40;54.30;102162.06;4142062;28;20070;-89
2021/06/23 01:14:27;;;;;;;8.15;2.35;;;;;;;11.47;54.07;102175.81;4154881;28;20471;-89
2021/06/23 01:16:31;;;;;;;5.60;2.50;;;;;;;11.46;53.92;102181.50;4143228;28;20038;-87
2021/06/23 01:18:38;;;;;;;9.00;3.17;;;;;;;11.45;53.96;102180.66;4143701;28;20602;-88
2021/06/23 01:20:44;;;;;;;8.10;2.75;;;;;;;11.60;54.41;102190.69;4142951;28;20038;-87
2021/06/23 01:22:45;;;;;;;6.28;3.28;;;;;;;11.57;54.46;102189.22;4158096;28;20223;-86
2021/06/23 01:24:46;;;;;;;5.20;3.70;;;;;;;11.38;54.66;102164.16;4142260;28;20033;-90
2021/06/23 01:26:46;;;;;;;8.88;2.90;;;;;;;11.58;54.66;102201.88;4127298;28;20034;-87
2021/06/23 01:28:47;;;;;;;6.38;2.45;;;;;;;11.31;54.43;102167.88;4141968;28;20030;-90
2021/06/23 01:30:48;;;;;;;6.75;2.53;;;;;;;11.32;54.49;102169.56;4127219;28;20750;-86
2021/06/23 01:32:49;;;;;;;5.53;2.70;;;;;;;11.39;54.46;102192.41;4140447;28;20037;-88
2021/06/23 01:34:51;;;;;;;7.40;2.65;;;;;;;11.32;54.27;102181.38;4157695;28;20033;-89
2021/06/23 01:36:52;;;;;;;5.78;2.42;;;;;;;11.42;54.56;102196.66;4141690;28;20034;-88
2021/06/23 01:38:52;;;;;;;10.95;3.83;;;;;;;11.38;54.52;102186.09;4141817;28;20037;-88
2021/06/23 01:40:53;;;;;;;8.50;2.85;;;;;;;11.42;54.22;102178.31;4139304;28;20571;-87
2021/06/23 01:42:54;;;;;;;5.53;2.47;;;;;;;11.32;54.30;102164.94;4160896;28;20111;-89
2021/06/23 01:44:54;;;;;;;3.97;1.92;;;;;;;11.33;54.41;102166.63;4160345;28;20047;-88
2021/06/23 01:46:56;;;;;;;7.90;1.60;;;;;;;11.17;54.26;102150.44;4159818;28;20044;-90
2021/06/23 01:48:57;;;;;;;6.60;1.98;;;;;;;11.48;54.53;102191.22;4142701;28;20038;-88
2021/06/23 01:51:00;;;;;;;10.45;3.13;;;;;;;11.22;54.37;102153.44;4154279;28;20438;-90
2021/06/23 01:53:00;;;;;;;10.52;3.42;;;;;;;11.19;54.57;102140.13;4160192;28;20029;-86
2021/06/23 01:55:01;;;;;;;7.90;2.90;;;;;;;11.26;54.34;102148.41;4142838;28;20736;-92
2021/06/23 01:57:07;;;;;;;11.52;2.90;;;;;;;11.24;54.27;102153.25;4127165;28;20073;-88
2021/06/23 01:59:10;;;;;;;8.25;2.33;;;;;;;11.32;54.45;102162.19;4142784;28;20026;-87
2021/06/23 02:01:22;;;;;;;6.75;3.50;;;;;;;11.27;54.49;102142.72;4140920;28;20065;-87
2021/06/23 02:03:32;;;;;;;4.30;3.75;;;;;;;11.46;54.68;102176.00;4160960;28;20856;-87
2021/06/23 02:05:42;;;;;;;5.05;2.80;;;;;;;11.49;54.84;102178.38;4175666;28;20032;-89
2021/06/23 02:07:45;;;;;;;6.88;2.80;;;;;;;11.44;54.91;102169.88;4159311;28;20064;-87
2021/06/23 02:10:29;;;;;;;8.18;3.05;;;;;;;11.40;55.29;102173.03;4174106;28;20041;-87
2021/06/23 02:12:29;;;;;;;6.68;2.92;;;;;;;11.40;55.43;102164.78;4155178;28;20033;-85
2021/06/23 02:14:37;;;;;;;7.20;3.90;;;;;;;11.20;55.05;102144.56;4150020;28;20036;-88
2021/06/23 02:16:41;;;;;;;8.63;2.92;;;;;;;11.26;54.84;102159.38;4155678;28;20036;-91
2021/06/23 02:18:42;;;;;;;8.30;3.20;;;;;;;11.35;54.70;102164.53;4147842;28;20037;-88
2021/06/23 02:20:43;;;;;;;10.93;5.22;;;;;;;11.24;54.71;102153.25;4142990;28;20042;-87
2021/06/23 02:22:44;;;;;;;7.50;2.28;;;;;;;11.42;54.92;102177.47;4156428;28;20038;-85
2021/06/23 02:24:47;;;;;;;9.90;2.78;;;;;;;11.25;54.85;102146.72;4141053;28;20482;-86
2021/06/23 02:26:48;;;;;;;7.65;2.72;;;;;;;11.18;55.83;102153.00;4173979;28;20058;-87
2021/06/23 02:28:48;;;;;;;7.43;2.90;;;;;;;11.27;55.22;102178.34;4158069;28;20072;-87
2021/06/23 02:30:50;;;;;;;9.20;2.65;;;;;;;11.14;55.13;102154.41;4157568;28;20037;-90
2021/06/23 02:32:54;;;;;;;9.15;4.55;;;;;;;11.23;55.13;102166.09;4138054;28;20081;-90
2021/06/23 02:34:58;;;;;;;6.82;3.65;;;;;;;11.05;55.39;102152.84;4157967;28;20135;-87
2021/06/23 02:37:00;;;;;;;5.80;3.03;;;;;;;11.37;55.14;102189.03;4156554;28;20018;-86
2021/06/23 02:39:01;;;;;;;6.72;2.58;;;;;;;11.34;55.64;102190.25;4155939;28;20054;-88
2021/06/23 02:41:02;;;;;;;3.75;2.13;;;;;;;11.15;55.47;102155.25;4174615;28;20025;-88
2021/06/23 02:43:03;;;;;;;3.70;1.77;;;;;;;11.19;55.59;102170.28;4156559;28;20450;-87
2021/06/23 02:45:05;;;;;;;5.55;3.33;;;;;;;11.31;56.15;102198.03;4147294;28;20042;-89
2021/06/23 02:47:06;;;;;;;7.72;3.72;;;;;;;11.13;55.85;102180.09;4172560;28;20036;-90
2021/06/23 02:49:07;;;;;;;6.00;2.63;;;;;;;11.28;55.72;102199.25;4141499;28;20037;-88
2021/06/23 02:51:21;;;;;;;6.07;3.33;;;;;;;11.22;55.80;102189.91;4142425;28;20794;-89
2021/06/23 02:53:22;;;;;;;5.93;3.78;;;;;;;11.11;56.11;102178.63;4155369;28;20134;-86
2021/06/23 02:55:23;;;;;;;11.60;3.85;;;;;;;11.16;56.37;102184.34;4158230;28;20037;-86
2021/06/23 02:57:23;;;;;;;9.45;3.72;;;;;;;11.22;56.14;102189.06;4175534;28;20037;-88
2021/06/23 02:59:24;;;;;;;8.75;2.28;;;;;;;11.07;56.01;102177.31;4173824;28;20118;-88
2021/06/23 03:01:24;;;;;;;6.97;2.70;;;;;;;11.16;56.02;102190.69;4141802;28;20042;-87
2021/06/23 03:03:25;;;;;;;5.85;3.28;;;;;;;11.09;56.06;102180.69;4139746;28;20042;-88
2021/06/23 03:05:25;;;;;;;11.82;3.88;;;;;;;11.06;55.95;102181.06;4175067;28;20179;-87
2021/06/23 03:07:26;;;;;;;7.93;4.95;;;;;;;11.15;55.78;102196.34;4134340;28;20030;-90
2021/06/23 03:09:26;;;;;;;5.15;3.60;;;;;;;11.02;55.67;102170.50;4128108;28;20037;-89
2021/06/23 03:11:37;;;;;;;7.40;3.25;;;;;;;11.12;55.56;102185.78;4155461;28;20037;-89
2021/06/23 03:13:38;;;;;;;11.30;4.10;;;;;;;11.04;56.32;102187.63;4171579;28;20875;-88
2021/06/23 03:15:39;;;;;;;7.00;2.38;;;;;;;11.07;56.17;102199.22;4156052;28;20063;-86
2021/06/23 03:17:39;;;;;;;11.60;4.05;;;;;;;10.96;56.39;102179.50;4126292;28;20038;-87
2021/06/23 03:19:39;;;;;;;10.30;3.80;;;;;;;11.02;56.25;102175.97;4175779;28;20034;-86
2021/06/23 03:21:40;;;;;;;7.68;3.08;;;;;;;11.14;56.26;102195.50;4175813;28;20036;-89
2021/06/23 03:23:47;;;;;;;10.55;3.90;;;;;;;11.18;56.68;102201.44;4155882;28;20088;-89
2021/06/23 03:25:47;;;;;;;8.13;3.53;;;;;;;11.13;56.71;102187.50;4138355;28;20034;-89
2021/06/23 03:27:55;;;;;;;10.35;4.22;;;;;;;11.19;56.37;102186.72;4157370;28;20395;-90
2021/06/23 03:29:55;;;;;;;5.18;3.03;;;;;;;11.26;56.81;102205.97;4155849;28;20033;-87
2021/06/23 03:31:57;;;;;;;10.10;2.15;;;;;;;11.17;56.64;102186.91;4157575;28;20045;-87
2021/06/23 03:33:57;;;;;;;5.13;2.25;;;;;;;11.27;56.79;102197.53;4140282;28;20026;-89
2021/06/23 03:35:58;;;;;;;10.15;2.53;;;;;;;11.23;56.79;102199.00;4156118;28;20041;-89
2021/06/23 03:37:58;;;;;;;9.38;3.58;;;;;;;11.24;56.97;102214.38;4142238;28;20069;-88
2021/06/23 03:39:59;;;;;;;7.70;2.92;;;;;;;11.31;57.13;102218.06;4142546;28;20026;-89
2021/06/23 03:42:03;;;;;;;11.48;3.47;;;;;;;11.15;57.19;102202.69;4176664;28;20049;-88
2021/06/23 03:44:03;;;;;;;7.40;2.75;;;;;;;11.27;57.09;102210.41;4160532;28;20162;-84
2021/06/23 03:46:04;;;;;;;5.43;2.58;;;;;;;11.33;57.17;102217.84;4177303;28;20571;-88
2021/06/23 03:48:04;;;;;;;8.10;3.15;;;;;;;11.34;57.20;102228.63;4160958;28;20037;-87
2021/06/23 03:50:06;;;;;;;8.35;2.50;;;;;;;11.44;56.72;102225.56;4175803;28;20068;-88
2021/06/23 03:52:07;;;;;;;9.10;3.03;;;;;;;11.28;56.86;102207.47;4178275;28;20025;-90
2021/06/23 03:54:07;;;;;;;8.60;2.63;;;;;;;11.26;56.94;102187.66;4132922;28;20533;-89
2021/06/23 03:56:08;;;;;;;8.50;3.08;;;;;;;11.42;57.11;102226.81;4141009;28;20038;-89
2021/06/23 03:58:08;;;;;;;10.90;3.63;;;;;;;11.38;56.77;102218.97;4144711;28;20045;-89
2021/06/23 04:00:09;;;;;;;11.18;2.90;;;;;;;11.30;56.70;102194.41;4144056;28;20049;-85
2021/06/23 04:02:10;;;;;;;7.28;2.25;;;;;;;11.57;56.52;102227.59;4145134;28;20037;-90
2021/06/23 04:04:10;;;;;;;8.90;2.83;;;;;;;11.41;56.44;102212.25;4125529;28;20142;-86
2021/06/23 04:06:11;;;;;;;7.03;2.92;;;;;;;11.55;56.43;102224.19;4162660;28;20068;-84
2021/06/23 04:08:11;;;;;;;13.63;3.30;;;;;;;11.58;56.49;102234.78;4124021;28;20050;-90
2021/06/23 04:10:13;;;;;;;7.80;3.72;;;;;;;11.50;56.43;102199.25;4143211;28;20034;-89
2021/06/23 04:12:13;;;;;;;8.50;3.38;;;;;;;11.40;56.60;102196.84;4142836;28;20077;-85
2021/06/23 04:14:14;;;;;;;5.40;3.20;;;;;;;11.59;56.68;102222.78;4144419;28;20030;-86
2021/06/23 04:16:15;;;;;;;7.95;2.90;;;;;;;11.51;56.68;102223.75;4157527;28;20512;-87
2021/06/23 04:18:15;;;;;;;10.18;3.83;;;;;;;11.52;56.37;102213.63;4143023;28;20160;-89
2021/06/23 04:20:16;;;;;;;6.78;2.88;;;;;;;11.61;56.65;102228.91;4127782;28;20046;-89
2021/06/23 04:22:16;;;;;;;12.77;2.83;;;;;;;11.71;56.96;102229.44;4137676;28;20053;-89
2021/06/23 04:24:17;;;;;;;10.98;3.17;;;;;;;11.54;56.73;102206.06;4142424;28;20601;-88
2021/06/23 04:26:17;;;;;;;6.00;2.40;;;;;;;11.76;57.07;102240.66;4126622;28;20042;-86
2021/06/23 04:28:18;;;;;;;7.60;2.63;;;;;;;11.75;56.54;102235.34;4125451;28;20030;-89
2021/06/23 04:30:19;;;;;;;9.23;3.65;;;;;;;11.81;56.70;102228.28;4143691;28;20037;-88
2021/06/23 04:32:22;;;;;;;10.13;3.03;;;;;;;11.63;56.27;102207.63;4141210;28;20125;-86
2021/06/23 04:34:23;;;;;;;7.18;2.42;;;;;;;11.62;56.68;102205.91;4126305;28;20101;-87
2021/06/23 04:36:23;;;;;;;5.45;2.50;;;;;;;11.76;56.75;102221.44;4143576;28;20803;-88
2021/06/23 04:38:24;;;;;;;7.10;4.40;;;;;;;11.55;55.96;102202.25;4142571;28;20587;-87
2021/06/23 04:40:25;;;;;;;11.05;2.80;;;;;;;11.73;55.84;102226.50;4128397;28;20038;-88
2021/06/23 04:42:25;;;;;;;7.63;2.90;;;;;;;11.70;56.04;102221.41;4143764;28;20436;-87
2021/06/23 04:44:25;;;;;;;9.65;4.65;;;;;;;11.86;56.37;102217.56;4157986;28;20467;-88
2021/06/23 04:46:28;;;;;;;7.97;3.72;;;;;;;11.86;56.54;102234.00;4144258;28;20069;-87
2021/06/23 04:48:29;;;;;;;11.98;4.25;;;;;;;11.87;56.20;102222.00;4141719;28;20044;-89
2021/06/23 04:50:30;;;;;;;6.07;3.45;;;;;;;11.85;55.94;102213.97;4110838;28;20026;-88
2021/06/23 04:52:30;;;;;;;8.95;4.93;;;;;;;12.05;55.86;102233.34;4138681;28;20086;-87
2021/06/23 04:54:33;;;;;;;10.35;4.20;;;;;;;12.07;55.92;102224.91;4141605;28;20025;-86
2021/06/23 04:56:34;;;;;;;6.63;2.92;;;;;;;12.16;55.82;102225.59;4126544;28;20126;-90
2021/06/23 04:58:34;;;;;;;5.80;3.15;;;;;;;12.35;55.44;102235.88;4160612;28;20029;-86
2021/06/23 05:00:35;;;;;;;8.52;3.92;;;;;;;12.38;55.54;102238.22;4142321;28;20143;-89
2021/06/23 05:02:35;;;;;;;8.13;3.92;;;;;;;12.26;55.70;102217.88;4146694;28;20022;-87
2021/06/23 05:04:36;;;;;;;6.10;2.20;;;;;;;12.47;54.81;102236.19;4166891;28;20037;-89
2021/06/23 05:06:36;;;;;;;9.18;4.40;;;;;;;12.52;54.44;102241.06;4126095;28;20027;-87
2021/06/23 05:08:37;;;;;;;7.07;3.10;;;;;;;12.46;54.37;102215.25;4160594;28;20483;-86
2021/06/23 05:10:37;;;;;;;7.70;3.00;;;;;;;12.63;53.46;102204.78;4175463;28;20223;-89
2021/06/23 05:12:38;;;;;;;6.28;3.55;;;;;;;12.70;53.30;102216.66;4143751;28;20608;-90
2021/06/23 05:14:38;;;;;;;9.13;3.90;;;;;;;12.70;53.59;102219.41;4158954;28;20029;-88
2021/06/23 05:16:40;;;;;;;11.25;4.93;;;;;;;12.55;53.41;102202.22;4159186;28;20022;-86
2021/06/23 05:18:41;;;;;;;6.30;3.50;;;;;;;12.59;53.30;102211.72;4164978;28;20025;-89
2021/06/23 05:20:43;;;;;;;7.60;4.00;;;;;;;12.71;52.70;102240.31;4157390;28;20049;-91
2021/06/23 05:22:48;;;;;;;7.45;2.42;;;;;;;12.52;53.34;102219.09;4143919;28;20033;-86
2021/06/23 05:24:48;;;;;;;5.18;2.78;;;;;;;12.45;52.89;102230.88;4159185;28;20033;-88
2021/06/23 05:26:49;;;;;;;11.38;2.47;;;;;;;12.64;53.61;102244.94;4175129;28;20029;-89
2021/06/23 05:28:49;;;;;;;9.38;3.50;;;;;;;12.49;53.02;102231.31;4127823;28;20493;-88
2021/06/23 05:30:50;;;;;;;7.30;3.63;;;;;;;12.63;53.33;102233.09;4174366;28;20032;-88
2021/06/23 05:32:50;;;;;;;10.55;3.15;;;;;;;12.60;52.65;102229.91;4151386;28;20050;-87
2021/06/23 05:34:51;;;;;;;4.97;2.70;;;;;;;12.64;52.53;102233.97;4168157;28;20091;-87
2021/06/23 05:36:51;;;;;;;5.50;2.15;;;;;;;12.73;53.24;102238.25;4142898;28;20030;-87
2021/06/23 05:38:52;;;;;;;10.07;2.80;;;;;;;12.64;53.26;102234.78;4176625;28;20029;-88
2021/06/23 05:40:53;;;;;;;7.32;2.65;;;;;;;12.76;52.86;102239.72;4175609;28;20068;-85
2021/06/23 05:42:53;;;;;;;9.30;4.93;;;;;;;12.87;52.64;102260.28;4176630;28;20032;-89
2021/06/23 05:44:54;;;;;;;7.95;2.72;;;;;;;12.75;52.57;102255.34;4158634;28;20735;-90
2021/06/23 05:46:55;;;;;;;6.15;3.15;;;;;;;12.65;53.04;102247.50;4156623;28;20037;-86
2021/06/23 05:48:56;;;;;;;8.05;2.83;;;;;;;12.79;51.99;102259.41;4174043;28;20072;-86
2021/06/23 05:50:56;;;;;;;9.85;2.78;;;;;;;12.78;52.30;102235.72;4158084;28;20124;-88
2021/06/23 05:52:57;;;;;;;6.38;2.20;;;;;;;12.91;51.30;102261.59;4156952;28;20036;-90
2021/06/23 05:54:57;;;;;;;6.72;2.53;;;;;;;12.76;52.07;102240.56;4142590;28;20117;-89
2021/06/23 05:56:58;;;;;;;10.57;3.50;;;;;;;12.95;52.43;102239.00;4173060;28;20040;-90
2021/06/23 05:58:58;;;;;;;6.30;3.88;;;;;;;13.07;51.41;102261.25;4158525;28;20044;-85
2021/06/23 06:01:01;;;;;;;10.57;3.67;;;;;;;13.03;52.69;102256.38;4158783;28;20038;-88
2021/06/23 06:03:01;;;;;;;11.80;4.68;;;;;;;13.12;51.78;102256.00;4172890;28;20529;-90
2021/06/23 06:05:02;;;;;;;8.00;2.58;;;;;;;13.06;51.33;102250.47;4141456;28;20049;-87
2021/06/23 06:07:03;;;;;;;10.93;3.50;;;;;;;13.13;51.50;102271.44;4158197;28;20025;-88
2021/06/23 06:09:03;;;;;;;9.32;2.30;;;;;;;13.18;51.14;102241.41;4158736;28;20125;-87
2021/06/23 06:11:04;;;;;;;10.25;3.88;;;;;;;13.28;51.05;102256.69;4154068;28;20176;-88
2021/06/23 06:13:05;;;;;;;6.10;3.72;;;;;;;13.13;50.39;102238.44;4143470;28;20038;-88
2021/06/23 06:15:06;;;;;;;8.15;2.63;;;;;;;13.16;50.91;102216.03;4139824;28;20061;-89
2021/06/23 06:17:10;;;;;;;16.20;3.28;;;;;;;13.15;50.89;102265.72;4161133;28;20481;-88
2021/06/23 06:19:10;;;;;;;11.68;3.70;;;;;;;12.93;51.23;102243.00;4141352;28;20038;-89
2021/06/23 06:21:11;;;;;;;14.15;3.35;;;;;;;13.09;51.51;102264.66;4170942;28;20376;-87
2021/06/23 06:23:14;;;;;;;7.78;3.17;;;;;;;12.90;51.73;102246.16;4169231;28;20064;-89
2021/06/23 06:25:15;;;;;;;8.82;3.53;;;;;;;12.72;51.13;102239.28;4126150;28;20033;-88
2021/06/23 06:27:15;;;;;;;7.47;2.80;;;;;;;12.91;51.31;102248.69;4153856;28;20048;-90
2021/06/23 06:29:16;;;;;;;7.22;3.13;;;;;;;13.04;51.52;102261.66;4153107;28;20506;-89
2021/06/23 06:31:16;;;;;;;5.65;3.13;;;;;;;13.02;51.82;102258.25;4141320;28;20058;-90
2021/06/23 06:33:17;;;;;;;15.13;3.70;;;;;;;13.20;51.46;102273.38;4152846;28;20037;-88
2021/06/23 06:35:17;;;;;;;4.72;2.35;;;;;;;12.93;50.35;102249.34;4140939;28;20468;-90
2021/06/23 06:37:18;;;;;;;8.55;3.25;;;;;;;13.03;51.09;102256.38;4156128;28;20029;-89
2021/06/23 06:39:19;;;;;;;3.65;1.92;;;;;;;12.88;50.90;102246.34;4166043;28;20025;-90
2021/06/23 06:41:19;;;;;;;6.82;2.30;;;;;;;12.96;51.14;102267.31;4137791;28;20100;-89
2021/06/23 06:43:21;;;;;;;5.35;2.10;;;;;;;13.00;50.99;102261.22;4123369;28;20442;-89
2021/06/23 06:45:22;;;;;;;11.05;2.28;;;;;;;13.03;50.87;102259.97;4154619;28;20462;-89
2021/06/23 06:47:23;;;;;;;10.15;2.70;;;;;;;12.99;50.86;102258.66;4157397;28;20049;-87
2021/06/23 06:49:27;;;;;;;9.38;2.88;;;;;;;13.04;51.29;102247.94;4174354;28;20033;-92
2021/06/23 06:51:27;;;;;;;4.22;2.45;;;;;;;13.08;51.17;102262.09;4137009;28;20030;-89
2021/06/23 06:53:29;;;;;;;6.47;2.90;;;;;;;13.16;51.38;102276.53;4167089;28;20064;-86
2021/06/23 06:55:29;;;;;;;6.95;2.10;;;;;;;13.12;51.45;102277.97;4163660;28;20045;-91
2021/06/23 06:57:30;;;;;;;7.93;2.85;;;;;;;13.20;51.44;102273.38;4153438;28;20119;-88
2021/06/23 06:59:30;;;;;;;6.43;3.38;;;;;;;12.95;51.58;102252.75;4152214;28;21843;-91
2021/06/23 07:01:31;;;;;;;5.63;2.10;;;;;;;13.22;52.09;102296.00;4152941;28;20025;-89
2021/06/23 07:03:32;;;;;;;8.88;3.80;;;;;;;13.16;52.23;102268.28;4145064;28;20534;-87
2021/06/23 07:05:33;;;;;;;8.52;3.75;;;;;;;13.06;52.70;102261.47;4134660;28;20058;-88
2021/06/23 07:07:33;;;;;;;5.93;3.33;;;;;;;13.09;52.00;102261.06;4137527;28;20697;-89
2021/06/23 07:09:34;;;;;;;7.25;2.65;;;;;;;12.89;52.40;102271.97;4149936;28;20025;-86
2021/06/23 07:11:34;;;;;;;9.60;2.60;;;;;;;13.12;52.33;102283.47;4171994;28;20025;-86
2021/06/23 07:13:35;;;;;;;4.22;2.67;;;;;;;13.10;52.23;102269.09;4148315;28;20511;-88
2021/06/23 07:15:35;;;;;;;5.65;3.15;;;;;;;13.20;52.39;102292.63;4172939;28;20029;-89
2021/06/23 07:17:38;;;;;;;5.53;2.30;;;;;;;13.29;52.41;102297.72;4153860;28;20384;-91
2021/06/23 07:19:39;;;;;;;7.50;2.42;;;;;;;13.11;52.30;102268.03;4152634;28;20112;-89
2021/06/23 07:21:40;;;;;;;6.93;2.35;;;;;;;13.29;52.20;102280.38;4153744;28;20104;-90
2021/06/23 07:23:40;;;;;;;5.72;3.05;;;;;;;13.37;52.56;102271.94;4151648;28;20025;-86
2021/06/23 07:25:41;;;;;;;8.02;2.40;;;;;;;13.46;52.37;102270.69;4138048;28;20046;-87
2021/06/23 07:27:41;;;;;;;8.60;2.25;;;;;;;13.68;52.42;102295.31;4159322;28;20089;-90
2021/06/23 07:29:42;;;;;;;4.95;2.70;;;;;;;13.70;52.63;102276.66;4134810;28;20040;-85
2021/06/23 07:31:53;;;;;;;7.32;3.00;;;;;;;13.98;52.60;102294.94;4170910;28;20040;-86
2021/06/23 07:36:42;;;;;;;6.50;3.17;;;;;;;13.83;51.36;102286.88;4128220;28;20041;-89
2021/06/23 07:38:43;;;;;;;8.45;3.72;;;;;;;13.81;51.75;102273.31;4158029;28;20051;-90
2021/06/23 07:42:50;;;;;;;5.68;3.15;;;;;;;13.97;50.77;102294.13;4171582;28;20087;-86
2021/06/23 07:44:56;;;;;;;5.97;3.35;;;;;;;13.94;50.40;102286.28;4147783;28;20459;-87
2021/06/23 07:47:00;;;;;;;5.82;3.60;;;;;;;13.95;50.70;102263.19;4168814;28;20037;-86
2021/06/23 07:49:01;;;;;;;6.70;2.42;;;;;;;13.97;50.54;102277.59;4171503;28;20028;-89
2021/06/23 07:51:07;;;;;;;11.90;4.30;;;;;;;14.00;49.40;102293.69;4172084;28;20847;-89
2021/06/23 08:09:31;;;;;;;4.97;2.35;;;;;;;13.94;47.60;102282.69;4138233;28;20692;-85
2021/06/23 08:11:42;;;;;;;3.47;2.40;;;;;;;14.01;47.52;102272.50;4154609;28;20045;-85
2021/06/23 08:13:43;;;;;;;7.57;2.22;;;;;;;13.96;47.15;102302.56;4153671;28;20072;-85
2021/06/23 08:15:45;;;;;;;7.20;2.38;;;;;;;13.79;47.72;102278.16;4121018;28;20045;-88
2021/06/23 08:17:46;;;;;;;5.13;1.60;;;;;;;13.91;47.92;102270.19;4127724;28;20031;-84
2021/06/23 08:19:46;;;;;;;3.83;1.92;;;;;;;14.17;47.67;102294.13;4134960;28;20130;-85
2021/06/23 08:21:47;;;;;;;7.90;2.65;;;;;;;14.28;47.22;102295.41;4116676;28;20039;-83
2021/06/23 08:23:47;;;;;;;6.13;3.25;;;;;;;14.47;47.45;102301.09;4131943;28;20836;-83
2021/06/23 08:25:48;;;;;;;4.50;2.10;;;;;;;14.32;47.29;102304.94;4135948;28;20080;-86
2021/06/23 08:27:49;;;;;;;5.60;2.65;;;;;;;14.55;46.78;102311.91;4133698;28;20030;-87
2021/06/23 08:29:50;;;;;;;7.20;3.20;;;;;;;14.32;46.48;102274.63;4117147;28;20126;-88
2021/06/23 08:31:50;;;;;;;6.07;2.47;;;;;;;14.42;46.42;102297.06;4132155;28;20065;-87
2021/06/23 08:33:53;;;;;;;4.25;2.00;;;;;;;14.48;46.47;102311.91;4143720;28;20030;-88
2021/06/23 08:35:54;;;;;;;9.60;2.92;;;;;;;14.43;47.08;102293.25;4139129;28;20029;-87
2021/06/23 08:37:55;;;;;;;7.10;3.33;;;;;;;14.59;46.92;102310.41;4160066;28;20553;-88
2021/06/23 08:39:55;;;;;;;10.60;2.60;;;;;;;14.39;47.35;102303.00;4124783;28;20037;-87
2021/06/23 08:41:56;;;;;;;5.88;2.80;;;;;;;14.28;47.21;102286.28;4140300;28;20413;-83
2021/06/23 08:43:58;;;;;;;11.15;2.90;;;;;;;14.45;48.47;102304.06;4159167;28;20044;-86
2021/06/23 08:46:02;;;;;;;6.90;2.75;;;;;;;14.37;47.93;102298.78;4138444;28;20037;-83
2021/06/23 08:48:03;;;;;;;7.53;2.83;;;;;;;14.38;48.70;102295.81;4157244;28;20037;-83
2021/06/23 08:50:04;;;;;;;7.18;2.55;;;;;;;14.50;47.76;102309.78;4140363;28;20488;-83
2021/06/23 08:52:05;;;;;;;5.13;2.83;;;;;;;14.45;47.90;102304.06;4155853;28;20073;-85
2021/06/23 08:54:06;;;;;;;6.15;2.22;;;;;;;14.50;48.20;102304.28;4140645;28;20041;-87
2021/06/23 08:56:07;;;;;;;5.13;2.50;;;;;;;14.64;47.98;102316.13;4125338;28;20452;-88
2021/06/23 08:58:07;;;;;;;8.45;2.20;;;;;;;14.62;48.06;102315.50;4156168;28;20219;-85
2021/06/23 09:00:09;;;;;;;4.18;1.88;;;;;;;14.31;47.53;102288.63;4141323;28;20503;-85
2021/06/23 09:02:14;;;;;;;4.55;2.17;;;;;;;14.45;47.58;102300.47;4157349;28;20096;-87
2021/06/23 09:04:16;;;;;;;3.50;1.83;;;;;;;14.42;47.59;102308.09;4161660;28;20533;-84
2021/06/23 09:06:38;;;;;;;6.35;2.65;;;;;;;14.46;47.88;102308.53;4149870;28;20037;-84
2021/06/23 09:08:39;;;;;;;5.47;3.15;;;;;;;14.39;48.34;102300.25;4171003;28;20032;-85
2021/06/23 09:10:39;;;;;;;13.52;3.22;;;;;;;14.44;48.26;102305.13;4138067;28;20552;-84
2021/06/23 09:12:40;;;;;;;5.80;3.03;;;;;;;14.47;48.07;102292.84;4150870;28;20108;-82
2021/06/23 09:14:40;;;;;;;5.88;2.65;;;;;;;14.45;47.46;102295.81;4140302;28;20040;-86
2021/06/23 09:17:00;;;;;;;6.68;3.67;;;;;;;14.47;46.83;102304.69;4157685;28;20075;-84
2021/06/23 09:19:00;;;;;;;5.93;3.33;;;;;;;14.71;46.75;102308.69;4152706;28;20430;-84
2021/06/23 09:21:11;;;;;;;5.88;2.70;;;;;;;14.57;46.53;102309.78;4155471;28;20037;-86
2021/06/23 09:23:12;;;;;;;4.90;2.38;;;;;;;14.79;47.15;102302.94;4157173;28;20025;-86
2021/06/23 09:25:13;;;;;;;5.65;2.72;;;;;;;14.83;46.08;102308.91;4153905;28;20767;-83
2021/06/23 09:27:25;;;;;;;10.93;2.20;;;;;;;14.88;45.71;102309.13;4153371;28;20032;-87
2021/06/23 09:29:25;;;;;;;5.65;4.40;;;;;;;14.98;47.39;102305.06;4148190;28;20037;-88
2021/06/23 09:31:26;;;;;;;4.85;3.78;;;;;;;15.17;47.00;102315.19;4137777;28;20491;-85
2021/06/23 09:33:26;;;;;;;5.43;2.50;;;;;;;15.02;45.81;102309.09;4153626;28;20033;-84
2021/06/23 09:35:27;;;;;;;3.85;1.95;;;;;;;15.00;45.84;102298.28;4171153;28;20033;-88
2021/06/23 09:37:30;;;;;;;9.50;2.78;;;;;;;15.10;46.67;102325.41;4151916;28;20021;-87
2021/06/23 09:39:31;;;;;;;7.63;2.60;;;;;;;15.17;46.85;102279.34;4154201;28;20558;-86
2021/06/23 09:41:35;;;;;;;5.13;1.98;;;;;;;15.31;45.71;102294.75;4153722;28;20040;-84
2021/06/23 09:43:38;;;;;;;8.05;2.08;;;;;;;15.42;45.50;102317.22;4172416;28;20025;-85
2021/06/23 09:45:38;;;;;;;6.75;2.10;;;;;;;15.38;45.25;102299.41;4154736;28;20076;-88
2021/06/23 09:47:40;;;;;;;8.63;2.40;;;;;;;15.36;45.25;102301.53;4138340;28;20494;-87